sensor_id;sensor_type;location;lat;lon;timestamp;temperature;humidity
44723;DHT22;30451;48.638;10.624;2023-02-03T00:00:57;22.00;49.90
44723;DHT22;30451;48.638;10.624;2023-02-03T00:03:23;21.90;49.90
44723;DHT22;30451;48.638;10.624;2023-02-03T00:05:48;21.90;49.90
44723;DHT22;30451;48.638;10.624;2023-02-03T00:08:15;21.90;50.30
44723;DHT22;30451;48.638;10.624;2023-02-03T00:10:41;21.90;50.10
44723;DHT22;30451;48.638;10.624;2023-02-03T00:13:07;21.80;50.00
44723;DHT22;30451;48.638;10.624;2023-02-03T00:15:33;21.80;50.10
44723;DHT22;30451;48.638;10.624;2023-02-03T00:17:59;21.80;50.10
44723;DHT22;30451;48.638;10.624;2023-02-03T00:20:24;21.70;50.10
44723;DHT22;30451;48.638;10.624;2023-02-03T00:22:50;21.70;50.10
44723;DHT22;30451;48.638;10.624;2023-02-03T00:25:16;21.70;50.20
44723;DHT22;30451;48.638;10.624;2023-02-03T00:27:42;21.70;50.20
44723;DHT22;30451;48.638;10.624;2023-02-03T00:30:09;21.70;50.30
44723;DHT22;30451;48.638;10.624;2023-02-03T00:32:35;21.60;50.30
44723;DHT22;30451;48.638;10.624;2023-02-03T00:35:01;21.60;50.30
44723;DHT22;30451;48.638;10.624;2023-02-03T00:37:26;21.60;50.40
44723;DHT22;30451;48.638;10.624;2023-02-03T00:39:52;21.60;50.40
44723;DHT22;30451;48.638;10.624;2023-02-03T00:42:18;21.60;50.50
44723;DHT22;30451;48.638;10.624;2023-02-03T00:44:43;21.50;50.50
44723;DHT22;30451;48.638;10.624;2023-02-03T00:47:09;21.50;50.50
44723;DHT22;30451;48.638;10.624;2023-02-03T00:49:35;21.50;50.60
44723;DHT22;30451;48.638;10.624;2023-02-03T00:52:00;21.50;50.60
44723;DHT22;30451;48.638;10.624;2023-02-03T00:54:26;21.50;50.70
44723;DHT22;30451;48.638;10.624;2023-02-03T00:56:51;21.40;50.70
44723;DHT22;30451;48.638;10.624;2023-02-03T00:59:17;21.40;50.80
44723;DHT22;30451;48.638;10.624;2023-02-03T01:01:43;21.40;50.80
44723;DHT22;30451;48.638;10.624;2023-02-03T01:04:08;21.30;50.80
44723;DHT22;30451;48.638;10.624;2023-02-03T01:06:34;21.30;50.80
44723;DHT22;30451;48.638;10.624;2023-02-03T01:09:01;21.30;50.90
44723;DHT22;30451;48.638;10.624;2023-02-03T01:11:27;21.30;50.90
44723;DHT22;30451;48.638;10.624;2023-02-03T01:13:57;21.20;50.90
44723;DHT22;30451;48.638;10.624;2023-02-03T01:16:26;21.20;50.90
44723;DHT22;30451;48.638;10.624;2023-02-03T01:18:54;21.20;51.00
44723;DHT22;30451;48.638;10.624;2023-02-03T01:21:22;21.20;51.00
44723;DHT22;30451;48.638;10.624;2023-02-03T01:23:49;21.20;51.10
44723;DHT22;30451;48.638;10.624;2023-02-03T01:26:17;21.10;51.00
44723;DHT22;30451;48.638;10.624;2023-02-03T01:28:49;21.10;51.10
44723;DHT22;30451;48.638;10.624;2023-02-03T01:31:17;21.10;51.10
44723;DHT22;30451;48.638;10.624;2023-02-03T01:33:44;21.10;51.20
44723;DHT22;30451;48.638;10.624;2023-02-03T01:36:14;21.10;51.20
44723;DHT22;30451;48.638;10.624;2023-02-03T01:38:40;21.10;51.30
44723;DHT22;30451;48.638;10.624;2023-02-03T01:41:09;21.00;51.30
44723;DHT22;30451;48.638;10.624;2023-02-03T01:43:41;21.00;51.30
44723;DHT22;30451;48.638;10.624;2023-02-03T01:46:30;21.00;51.40
44723;DHT22;30451;48.638;10.624;2023-02-03T01:49:19;21.00;51.50
44723;DHT22;30451;48.638;10.624;2023-02-03T01:51:46;20.90;51.50
44723;DHT22;30451;48.638;10.624;2023-02-03T01:54:18;20.90;51.50
44723;DHT22;30451;48.638;10.624;2023-02-03T01:56:48;20.90;51.50
44723;DHT22;30451;48.638;10.624;2023-02-03T01:59:16;20.90;51.60
44723;DHT22;30451;48.638;10.624;2023-02-03T02:01:44;20.90;51.60
44723;DHT22;30451;48.638;10.624;2023-02-03T02:04:11;20.80;51.60
44723;DHT22;30451;48.638;10.624;2023-02-03T02:06:37;20.80;51.60
44723;DHT22;30451;48.638;10.624;2023-02-03T02:09:03;20.80;51.70
44723;DHT22;30451;48.638;10.624;2023-02-03T02:11:29;20.80;51.70
44723;DHT22;30451;48.638;10.624;2023-02-03T02:13:57;20.80;51.70
44723;DHT22;30451;48.638;10.624;2023-02-03T02:16:35;20.70;51.70
44723;DHT22;30451;48.638;10.624;2023-02-03T02:19:14;20.70;51.80
44723;DHT22;30451;48.638;10.624;2023-02-03T02:22:07;20.70;51.80
44723;DHT22;30451;48.638;10.624;2023-02-03T02:24:58;20.70;51.80
44723;DHT22;30451;48.638;10.624;2023-02-03T02:30:42;20.70;51.90
44723;DHT22;30451;48.638;10.624;2023-02-03T02:44:29;20.60;52.10
44723;DHT22;30451;48.638;10.624;2023-02-03T02:46:59;20.60;52.10
44723;DHT22;30451;48.638;10.624;2023-02-03T02:49:43;20.50;52.10
44723;DHT22;30451;48.638;10.624;2023-02-03T02:52:12;20.50;52.10
44723;DHT22;30451;48.638;10.624;2023-02-03T02:54:39;20.50;52.10
44723;DHT22;30451;48.638;10.624;2023-02-03T02:57:09;20.50;52.20
44723;DHT22;30451;48.638;10.624;2023-02-03T02:59:36;20.50;52.20
44723;DHT22;30451;48.638;10.624;2023-02-03T03:02:01;20.50;52.20
44723;DHT22;30451;48.638;10.624;2023-02-03T03:04:30;20.50;52.20
44723;DHT22;30451;48.638;10.624;2023-02-03T03:07:06;20.40;52.20
44723;DHT22;30451;48.638;10.624;2023-02-03T03:12:23;20.40;52.30
44723;DHT22;30451;48.638;10.624;2023-02-03T03:14:53;20.40;52.40
44723;DHT22;30451;48.638;10.624;2023-02-03T03:17:24;20.40;52.40
44723;DHT22;30451;48.638;10.624;2023-02-03T03:19:54;20.40;52.40
44723;DHT22;30451;48.638;10.624;2023-02-03T03:22:21;20.40;52.40
44723;DHT22;30451;48.638;10.624;2023-02-03T03:24:53;20.40;52.50
44723;DHT22;30451;48.638;10.624;2023-02-03T03:27:22;20.30;52.40
44723;DHT22;30451;48.638;10.624;2023-02-03T03:32:19;20.30;52.40
44723;DHT22;30451;48.638;10.624;2023-02-03T03:34:46;20.30;52.40
44723;DHT22;30451;48.638;10.624;2023-02-03T03:37:17;20.30;52.50
44723;DHT22;30451;48.638;10.624;2023-02-03T03:39:57;20.30;52.50
44723;DHT22;30451;48.638;10.624;2023-02-03T03:47:35;20.30;52.60
44723;DHT22;30451;48.638;10.624;2023-02-03T03:50:05;20.20;52.60
44723;DHT22;30451;48.638;10.624;2023-02-03T03:52:33;20.30;52.60
44723;DHT22;30451;48.638;10.624;2023-02-03T03:55:02;20.30;52.60
44723;DHT22;30451;48.638;10.624;2023-02-03T03:57:41;20.20;52.60
44723;DHT22;30451;48.638;10.624;2023-02-03T04:00:11;20.20;52.60
44723;DHT22;30451;48.638;10.624;2023-02-03T04:02:41;20.20;52.60
44723;DHT22;30451;48.638;10.624;2023-02-03T04:05:11;20.20;52.60
44723;DHT22;30451;48.638;10.624;2023-02-03T04:07:40;20.30;52.70
44723;DHT22;30451;48.638;10.624;2023-02-03T04:10:19;20.20;52.60
44723;DHT22;30451;48.638;10.624;2023-02-03T04:12:46;20.20;52.60
44723;DHT22;30451;48.638;10.624;2023-02-03T04:15:12;20.20;52.60
44723;DHT22;30451;48.638;10.624;2023-02-03T04:17:37;20.20;52.70
44723;DHT22;30451;48.638;10.624;2023-02-03T04:20:04;20.20;52.70
44723;DHT22;30451;48.638;10.624;2023-02-03T04:22:29;20.20;52.70
44723;DHT22;30451;48.638;10.624;2023-02-03T04:24:55;20.20;52.70
44723;DHT22;30451;48.638;10.624;2023-02-03T04:27:24;20.20;52.70
44723;DHT22;30451;48.638;10.624;2023-02-03T04:29:50;20.20;52.70
44723;DHT22;30451;48.638;10.624;2023-02-03T04:32:16;20.20;52.70
44723;DHT22;30451;48.638;10.624;2023-02-03T04:34:42;20.20;52.70
44723;DHT22;30451;48.638;10.624;2023-02-03T04:37:08;20.10;52.70
44723;DHT22;30451;48.638;10.624;2023-02-03T04:39:33;20.10;52.70
44723;DHT22;30451;48.638;10.624;2023-02-03T04:41:59;20.10;52.70
44723;DHT22;30451;48.638;10.624;2023-02-03T04:44:24;20.10;52.70
44723;DHT22;30451;48.638;10.624;2023-02-03T04:46:50;20.10;52.70
44723;DHT22;30451;48.638;10.624;2023-02-03T04:49:15;20.10;52.70
44723;DHT22;30451;48.638;10.624;2023-02-03T04:51:42;20.10;52.70
44723;DHT22;30451;48.638;10.624;2023-02-03T04:54:09;20.10;52.70
44723;DHT22;30451;48.638;10.624;2023-02-03T04:56:35;20.10;52.70
44723;DHT22;30451;48.638;10.624;2023-02-03T04:59:01;20.10;52.70
44723;DHT22;30451;48.638;10.624;2023-02-03T05:01:26;20.10;52.70
44723;DHT22;30451;48.638;10.624;2023-02-03T05:03:52;20.10;52.70
44723;DHT22;30451;48.638;10.624;2023-02-03T05:06:22;20.10;52.70
44723;DHT22;30451;48.638;10.624;2023-02-03T05:08:49;20.10;52.70
44723;DHT22;30451;48.638;10.624;2023-02-03T05:11:14;20.10;52.70
44723;DHT22;30451;48.638;10.624;2023-02-03T05:13:40;20.10;52.80
44723;DHT22;30451;48.638;10.624;2023-02-03T05:16:05;20.00;52.90
44723;DHT22;30451;48.638;10.624;2023-02-03T05:18:31;20.00;53.20
44723;DHT22;30451;48.638;10.624;2023-02-03T05:20:57;20.00;53.40
44723;DHT22;30451;48.638;10.624;2023-02-03T05:23:22;20.00;53.60
44723;DHT22;30451;48.638;10.624;2023-02-03T05:25:48;20.00;53.70
44723;DHT22;30451;48.638;10.624;2023-02-03T05:28:13;20.00;53.50
44723;DHT22;30451;48.638;10.624;2023-02-03T05:30:39;20.00;53.80
44723;DHT22;30451;48.638;10.624;2023-02-03T05:33:05;20.00;53.70
44723;DHT22;30451;48.638;10.624;2023-02-03T05:35:31;20.00;53.90
44723;DHT22;30451;48.638;10.624;2023-02-03T05:37:56;20.00;53.80
44723;DHT22;30451;48.638;10.624;2023-02-03T05:40:23;20.00;53.80
44723;DHT22;30451;48.638;10.624;2023-02-03T05:43:07;20.00;53.90
44723;DHT22;30451;48.638;10.624;2023-02-03T05:45:33;20.00;53.90
44723;DHT22;30451;48.638;10.624;2023-02-03T05:47:59;20.00;53.80
44723;DHT22;30451;48.638;10.624;2023-02-03T05:50:30;20.00;53.70
44723;DHT22;30451;48.638;10.624;2023-02-03T05:52:59;20.00;53.60
44723;DHT22;30451;48.638;10.624;2023-02-03T05:55:26;20.00;53.60
44723;DHT22;30451;48.638;10.624;2023-02-03T05:57:52;20.00;53.60
44723;DHT22;30451;48.638;10.624;2023-02-03T06:00:19;20.00;53.60
44723;DHT22;30451;48.638;10.624;2023-02-03T06:02:53;20.00;53.60
44723;DHT22;30451;48.638;10.624;2023-02-03T06:05:19;19.90;53.60
44723;DHT22;30451;48.638;10.624;2023-02-03T06:07:46;19.90;53.60
44723;DHT22;30451;48.638;10.624;2023-02-03T06:10:12;19.90;53.70
44723;DHT22;30451;48.638;10.624;2023-02-03T06:12:37;19.90;53.80
44723;DHT22;30451;48.638;10.624;2023-02-03T06:15:03;19.90;53.90
44723;DHT22;30451;48.638;10.624;2023-02-03T06:17:29;19.90;54.00
44723;DHT22;30451;48.638;10.624;2023-02-03T06:19:55;19.90;54.00
44723;DHT22;30451;48.638;10.624;2023-02-03T06:22:20;19.90;54.00
44723;DHT22;30451;48.638;10.624;2023-02-03T06:24:46;19.90;54.10
44723;DHT22;30451;48.638;10.624;2023-02-03T06:27:13;19.90;54.10
44723;DHT22;30451;48.638;10.624;2023-02-03T06:29:39;19.90;54.50
44723;DHT22;30451;48.638;10.624;2023-02-03T06:32:05;19.80;54.40
44723;DHT22;30451;48.638;10.624;2023-02-03T06:34:31;19.90;54.60
44723;DHT22;30451;48.638;10.624;2023-02-03T06:36:57;19.90;54.60
44723;DHT22;30451;48.638;10.624;2023-02-03T06:39:23;19.90;54.60
44723;DHT22;30451;48.638;10.624;2023-02-03T06:41:49;19.90;54.50
44723;DHT22;30451;48.638;10.624;2023-02-03T06:44:16;19.90;54.60
44723;DHT22;30451;48.638;10.624;2023-02-03T06:46:42;19.90;54.60
44723;DHT22;30451;48.638;10.624;2023-02-03T06:49:07;19.80;54.60
44723;DHT22;30451;48.638;10.624;2023-02-03T06:51:33;19.90;54.70
44723;DHT22;30451;48.638;10.624;2023-02-03T06:53:59;19.80;54.60
44723;DHT22;30451;48.638;10.624;2023-02-03T06:56:24;19.90;54.60
44723;DHT22;30451;48.638;10.624;2023-02-03T06:58:50;19.80;54.80
44723;DHT22;30451;48.638;10.624;2023-02-03T07:01:15;20.00;55.50
44723;DHT22;30451;48.638;10.624;2023-02-03T07:03:41;20.10;55.20
44723;DHT22;30451;48.638;10.624;2023-02-03T07:06:07;20.30;55.20
44723;DHT22;30451;48.638;10.624;2023-02-03T07:08:32;20.40;55.10
44723;DHT22;30451;48.638;10.624;2023-02-03T07:10:58;20.60;54.90
44723;DHT22;30451;48.638;10.624;2023-02-03T07:13:23;20.70;54.50
44723;DHT22;30451;48.638;10.624;2023-02-03T07:15:49;20.80;54.40
44723;DHT22;30451;48.638;10.624;2023-02-03T07:18:15;21.00;54.20
44723;DHT22;30451;48.638;10.624;2023-02-03T07:20:42;21.10;54.00
44723;DHT22;30451;48.638;10.624;2023-02-03T07:23:08;21.20;53.70
44723;DHT22;30451;48.638;10.624;2023-02-03T07:25:33;21.40;53.20
44723;DHT22;30451;48.638;10.624;2023-02-03T07:27:59;21.50;53.10
44723;DHT22;30451;48.638;10.624;2023-02-03T07:30:24;21.50;52.80
44723;DHT22;30451;48.638;10.624;2023-02-03T07:32:51;21.70;52.60
44723;DHT22;30451;48.638;10.624;2023-02-03T07:35:17;21.80;53.00
44723;DHT22;30451;48.638;10.624;2023-02-03T07:37:43;22.10;52.70
44723;DHT22;30451;48.638;10.624;2023-02-03T07:40:11;22.20;52.00
44723;DHT22;30451;48.638;10.624;2023-02-03T07:42:45;22.30;52.00
44723;DHT22;30451;48.638;10.624;2023-02-03T07:45:12;22.50;51.10
44723;DHT22;30451;48.638;10.624;2023-02-03T07:47:38;22.40;51.00
44723;DHT22;30451;48.638;10.624;2023-02-03T07:50:04;22.30;51.20
44723;DHT22;30451;48.638;10.624;2023-02-03T07:52:30;22.30;51.60
44723;DHT22;30451;48.638;10.624;2023-02-03T07:54:56;22.30;51.70
44723;DHT22;30451;48.638;10.624;2023-02-03T07:57:21;22.50;51.60
44723;DHT22;30451;48.638;10.624;2023-02-03T07:59:47;22.70;51.40
44723;DHT22;30451;48.638;10.624;2023-02-03T08:02:12;22.90;50.80
44723;DHT22;30451;48.638;10.624;2023-02-03T08:04:38;22.80;50.40
44723;DHT22;30451;48.638;10.624;2023-02-03T08:07:03;22.80;50.40
44723;DHT22;30451;48.638;10.624;2023-02-03T08:09:29;22.70;50.40
44723;DHT22;30451;48.638;10.624;2023-02-03T08:11:55;22.70;50.40
44723;DHT22;30451;48.638;10.624;2023-02-03T08:14:20;22.70;50.30
44723;DHT22;30451;48.638;10.624;2023-02-03T08:16:46;22.60;50.20
44723;DHT22;30451;48.638;10.624;2023-02-03T08:19:12;22.60;50.20
44723;DHT22;30451;48.638;10.624;2023-02-03T08:21:37;22.60;50.10
44723;DHT22;30451;48.638;10.624;2023-02-03T08:24:03;22.60;50.20
44723;DHT22;30451;48.638;10.624;2023-02-03T08:26:29;22.60;49.80
44723;DHT22;30451;48.638;10.624;2023-02-03T08:28:55;22.60;49.40
44723;DHT22;30451;48.638;10.624;2023-02-03T08:31:21;22.60;49.10
44723;DHT22;30451;48.638;10.624;2023-02-03T08:33:46;22.60;49.00
44723;DHT22;30451;48.638;10.624;2023-02-03T08:36:12;22.60;49.00
44723;DHT22;30451;48.638;10.624;2023-02-03T08:38:38;22.60;49.00
44723;DHT22;30451;48.638;10.624;2023-02-03T08:41:09;22.50;48.90
44723;DHT22;30451;48.638;10.624;2023-02-03T08:43:35;22.50;48.80
44723;DHT22;30451;48.638;10.624;2023-02-03T08:46:05;22.50;49.00
44723;DHT22;30451;48.638;10.624;2023-02-03T08:48:31;22.50;49.10
44723;DHT22;30451;48.638;10.624;2023-02-03T08:50:57;22.50;49.80
44723;DHT22;30451;48.638;10.624;2023-02-03T08:53:23;22.60;50.00
44723;DHT22;30451;48.638;10.624;2023-02-03T08:55:48;22.80;49.10
44723;DHT22;30451;48.638;10.624;2023-02-03T08:58:14;22.90;49.10
44723;DHT22;30451;48.638;10.624;2023-02-03T09:00:40;23.00;49.10
44723;DHT22;30451;48.638;10.624;2023-02-03T09:03:06;23.00;49.00
44723;DHT22;30451;48.638;10.624;2023-02-03T09:05:32;23.10;48.90
44723;DHT22;30451;48.638;10.624;2023-02-03T09:07:58;23.10;48.70
44723;DHT22;30451;48.638;10.624;2023-02-03T09:10:23;23.10;48.60
44723;DHT22;30451;48.638;10.624;2023-02-03T09:12:49;23.10;48.80
44723;DHT22;30451;48.638;10.624;2023-02-03T09:15:15;23.10;48.30
44723;DHT22;30451;48.638;10.624;2023-02-03T09:17:40;23.10;47.80
44723;DHT22;30451;48.638;10.624;2023-02-03T09:20:06;23.00;47.60
44723;DHT22;30451;48.638;10.624;2023-02-03T09:22:33;23.00;47.70
44723;DHT22;30451;48.638;10.624;2023-02-03T09:24:58;23.00;47.80
44723;DHT22;30451;48.638;10.624;2023-02-03T09:27:24;23.00;47.80
44723;DHT22;30451;48.638;10.624;2023-02-03T09:29:50;23.00;48.00
44723;DHT22;30451;48.638;10.624;2023-02-03T09:32:15;23.00;48.10
44723;DHT22;30451;48.638;10.624;2023-02-03T09:34:41;23.00;48.20
44723;DHT22;30451;48.638;10.624;2023-02-03T09:37:07;22.90;48.20
44723;DHT22;30451;48.638;10.624;2023-02-03T09:39:33;23.00;48.20
44723;DHT22;30451;48.638;10.624;2023-02-03T09:45:10;23.00;48.30
44723;DHT22;30451;48.638;10.624;2023-02-03T09:47:41;23.00;48.10
44723;DHT22;30451;48.638;10.624;2023-02-03T09:50:13;22.90;48.10
44723;DHT22;30451;48.638;10.624;2023-02-03T09:52:42;23.00;48.10
44723;DHT22;30451;48.638;10.624;2023-02-03T09:55:40;23.00;48.10
44723;DHT22;30451;48.638;10.624;2023-02-03T09:58:11;23.00;48.10
44723;DHT22;30451;48.638;10.624;2023-02-03T10:00:49;22.90;48.20
44723;DHT22;30451;48.638;10.624;2023-02-03T10:08:35;22.90;48.10
44723;DHT22;30451;48.638;10.624;2023-02-03T10:11:21;22.90;48.10
44723;DHT22;30451;48.638;10.624;2023-02-03T10:19:11;23.00;49.10
44723;DHT22;30451;48.638;10.624;2023-02-03T10:24:10;23.30;48.70
44723;DHT22;30451;48.638;10.624;2023-02-03T10:26:38;23.40;48.50
44723;DHT22;30451;48.638;10.624;2023-02-03T10:29:22;23.60;48.20
44723;DHT22;30451;48.638;10.624;2023-02-03T10:31:54;23.80;48.30
44723;DHT22;30451;48.638;10.624;2023-02-03T10:34:19;23.90;47.30
44723;DHT22;30451;48.638;10.624;2023-02-03T10:36:57;24.00;47.00
44723;DHT22;30451;48.638;10.624;2023-02-03T10:39:47;24.00;47.10
44723;DHT22;30451;48.638;10.624;2023-02-03T10:42:14;24.00;47.00
44723;DHT22;30451;48.638;10.624;2023-02-03T10:44:47;24.00;46.30
44723;DHT22;30451;48.638;10.624;2023-02-03T10:47:33;24.00;45.90
44723;DHT22;30451;48.638;10.624;2023-02-03T10:50:03;23.90;45.60
44723;DHT22;30451;48.638;10.624;2023-02-03T10:52:30;23.80;45.70
44723;DHT22;30451;48.638;10.624;2023-02-03T10:54:57;23.70;45.80
44723;DHT22;30451;48.638;10.624;2023-02-03T10:57:27;23.80;46.00
44723;DHT22;30451;48.638;10.624;2023-02-03T11:00:04;23.80;45.90
44723;DHT22;30451;48.638;10.624;2023-02-03T11:02:31;23.90;45.80
44723;DHT22;30451;48.638;10.624;2023-02-03T11:07:42;23.80;45.40
44723;DHT22;30451;48.638;10.624;2023-02-03T11:13:16;23.70;45.60
44723;DHT22;30451;48.638;10.624;2023-02-03T11:16:04;23.60;45.70
44723;DHT22;30451;48.638;10.624;2023-02-03T11:21:14;23.50;45.90
44723;DHT22;30451;48.638;10.624;2023-02-03T11:23:46;23.50;46.00
44723;DHT22;30451;48.638;10.624;2023-02-03T11:26:14;23.50;46.10
44723;DHT22;30451;48.638;10.624;2023-02-03T11:28:44;23.40;46.10
44723;DHT22;30451;48.638;10.624;2023-02-03T11:31:19;23.30;46.00
44723;DHT22;30451;48.638;10.624;2023-02-03T11:33:48;23.30;46.10
44723;DHT22;30451;48.638;10.624;2023-02-03T11:36:16;23.30;46.00
44723;DHT22;30451;48.638;10.624;2023-02-03T11:38:41;23.30;46.20
44723;DHT22;30451;48.638;10.624;2023-02-03T11:41:17;23.20;46.20
44723;DHT22;30451;48.638;10.624;2023-02-03T11:43:44;23.20;46.30
44723;DHT22;30451;48.638;10.624;2023-02-03T11:46:10;23.20;46.40
44723;DHT22;30451;48.638;10.624;2023-02-03T11:48:38;23.20;46.50
44723;DHT22;30451;48.638;10.624;2023-02-03T11:51:37;23.20;46.50
44723;DHT22;30451;48.638;10.624;2023-02-03T11:54:24;23.10;46.50
44723;DHT22;30451;48.638;10.624;2023-02-03T11:57:12;23.10;46.50
44723;DHT22;30451;48.638;10.624;2023-02-03T12:11:32;23.30;46.40
44723;DHT22;30451;48.638;10.624;2023-02-03T12:20:04;23.30;46.10
44723;DHT22;30451;48.638;10.624;2023-02-03T12:22:34;23.40;46.20
44723;DHT22;30451;48.638;10.624;2023-02-03T12:25:27;23.40;46.20
44723;DHT22;30451;48.638;10.624;2023-02-03T12:28:13;23.40;46.20
44723;DHT22;30451;48.638;10.624;2023-02-03T12:30:50;23.40;46.30
44723;DHT22;30451;48.638;10.624;2023-02-03T12:33:29;23.40;46.40
44723;DHT22;30451;48.638;10.624;2023-02-03T12:36:04;23.50;46.40
44723;DHT22;30451;48.638;10.624;2023-02-03T12:38:59;23.50;46.30
44723;DHT22;30451;48.638;10.624;2023-02-03T12:41:38;23.50;46.20
44723;DHT22;30451;48.638;10.624;2023-02-03T12:44:16;23.50;46.10
44723;DHT22;30451;48.638;10.624;2023-02-03T12:46:52;23.50;46.70
44723;DHT22;30451;48.638;10.624;2023-02-03T12:49:41;23.50;46.20
44723;DHT22;30451;48.638;10.624;2023-02-03T12:55:36;23.60;46.20
44723;DHT22;30451;48.638;10.624;2023-02-03T12:58:23;23.60;46.10
44723;DHT22;30451;48.638;10.624;2023-02-03T13:04:02;23.60;46.20
44723;DHT22;30451;48.638;10.624;2023-02-03T13:06:48;23.60;46.10
44723;DHT22;30451;48.638;10.624;2023-02-03T13:09:38;23.70;46.10
44723;DHT22;30451;48.638;10.624;2023-02-03T13:14:58;23.60;46.10
44723;DHT22;30451;48.638;10.624;2023-02-03T13:17:31;23.60;46.10
44723;DHT22;30451;48.638;10.624;2023-02-03T13:20:04;23.50;46.10
44723;DHT22;30451;48.638;10.624;2023-02-03T13:22:34;23.50;46.10
44723;DHT22;30451;48.638;10.624;2023-02-03T13:43:46;23.20;46.40
44723;DHT22;30451;48.638;10.624;2023-02-03T13:46:27;23.20;46.40
44723;DHT22;30451;48.638;10.624;2023-02-03T13:48:57;23.10;46.40
44723;DHT22;30451;48.638;10.624;2023-02-03T13:51:27;23.10;46.50
44723;DHT22;30451;48.638;10.624;2023-02-03T13:54:14;23.00;46.50
44723;DHT22;30451;48.638;10.624;2023-02-03T13:56:41;23.00;46.60
44723;DHT22;30451;48.638;10.624;2023-02-03T14:01:40;22.90;46.60
44723;DHT22;30451;48.638;10.624;2023-02-03T14:12:20;22.90;46.80
44723;DHT22;30451;48.638;10.624;2023-02-03T14:14:58;22.80;46.80
44723;DHT22;30451;48.638;10.624;2023-02-03T14:20:02;22.70;46.90
44723;DHT22;30451;48.638;10.624;2023-02-03T14:22:30;22.70;46.90
44723;DHT22;30451;48.638;10.624;2023-02-03T14:25:02;22.70;47.00
44723;DHT22;30451;48.638;10.624;2023-02-03T14:27:29;22.60;47.50
44723;DHT22;30451;48.638;10.624;2023-02-03T14:30:15;22.60;47.00
44723;DHT22;30451;48.638;10.624;2023-02-03T14:32:48;22.60;47.20
44723;DHT22;30451;48.638;10.624;2023-02-03T14:35:38;22.50;47.20
44723;DHT22;30451;48.638;10.624;2023-02-03T14:38:12;22.50;47.30
44723;DHT22;30451;48.638;10.624;2023-02-03T14:40:50;22.50;47.50
44723;DHT22;30451;48.638;10.624;2023-02-03T14:51:39;22.40;47.40
44723;DHT22;30451;48.638;10.624;2023-02-03T15:00:26;22.30;47.40
44723;DHT22;30451;48.638;10.624;2023-02-03T15:02:27;22.20;47.40
44723;DHT22;30451;48.638;10.624;2023-02-03T15:07:48;22.20;47.60
44723;DHT22;30451;48.638;10.624;2023-02-03T15:10:26;22.20;47.60
44723;DHT22;30451;48.638;10.624;2023-02-03T15:12:55;22.10;47.60
44723;DHT22;30451;48.638;10.624;2023-02-03T15:15:27;22.10;47.60
44723;DHT22;30451;48.638;10.624;2023-02-03T15:17:55;22.10;47.70
44723;DHT22;30451;48.638;10.624;2023-02-03T15:22:52;22.00;47.70
44723;DHT22;30451;48.638;10.624;2023-02-03T15:25:20;22.00;47.70
44723;DHT22;30451;48.638;10.624;2023-02-03T15:27:46;22.00;47.80
44723;DHT22;30451;48.638;10.624;2023-02-03T15:30:23;21.90;47.80
44723;DHT22;30451;48.638;10.624;2023-02-03T15:33:15;21.90;47.80
44723;DHT22;30451;48.638;10.624;2023-02-03T15:35:45;21.90;47.90
44723;DHT22;30451;48.638;10.624;2023-02-03T15:38:16;21.80;47.90
44723;DHT22;30451;48.638;10.624;2023-02-03T15:40:47;21.80;47.90
44723;DHT22;30451;48.638;10.624;2023-02-03T15:45:43;21.80;48.00
44723;DHT22;30451;48.638;10.624;2023-02-03T15:48:31;21.80;48.00
44723;DHT22;30451;48.638;10.624;2023-02-03T15:51:11;21.70;48.00
44723;DHT22;30451;48.638;10.624;2023-02-03T15:56:26;21.70;48.30
44723;DHT22;30451;48.638;10.624;2023-02-03T15:58:55;21.70;48.30
44723;DHT22;30451;48.638;10.624;2023-02-03T16:01:23;21.60;48.30
44723;DHT22;30451;48.638;10.624;2023-02-03T16:03:53;21.60;48.40
44723;DHT22;30451;48.638;10.624;2023-02-03T16:06:29;21.60;48.50
44723;DHT22;30451;48.638;10.624;2023-02-03T16:08:56;21.60;48.50
44723;DHT22;30451;48.638;10.624;2023-02-03T16:11:28;21.60;48.50
44723;DHT22;30451;48.638;10.624;2023-02-03T16:13:55;21.50;48.50
44723;DHT22;30451;48.638;10.624;2023-02-03T16:16:24;21.50;48.50
44723;DHT22;30451;48.638;10.624;2023-02-03T16:18:56;21.50;48.50
44723;DHT22;30451;48.638;10.624;2023-02-03T16:21:55;21.50;48.60
44723;DHT22;30451;48.638;10.624;2023-02-03T16:24:42;21.50;48.60
44723;DHT22;30451;48.638;10.624;2023-02-03T16:29:52;21.40;48.60
44723;DHT22;30451;48.638;10.624;2023-02-03T16:32:36;21.40;48.70
44723;DHT22;30451;48.638;10.624;2023-02-03T16:35:21;21.40;48.70
44723;DHT22;30451;48.638;10.624;2023-02-03T16:38:07;21.40;48.70
44723;DHT22;30451;48.638;10.624;2023-02-03T16:40:51;21.30;48.80
44723;DHT22;30451;48.638;10.624;2023-02-03T16:43:35;21.30;48.80
44723;DHT22;30451;48.638;10.624;2023-02-03T16:46:19;21.30;48.80
44723;DHT22;30451;48.638;10.624;2023-02-03T16:49:03;21.30;48.90
44723;DHT22;30451;48.638;10.624;2023-02-03T16:51:47;21.30;49.00
44723;DHT22;30451;48.638;10.624;2023-02-03T16:54:13;21.20;48.90
44723;DHT22;30451;48.638;10.624;2023-02-03T16:56:40;21.20;49.00
44723;DHT22;30451;48.638;10.624;2023-02-03T16:59:06;21.20;49.00
44723;DHT22;30451;48.638;10.624;2023-02-03T17:01:31;21.20;49.10
44723;DHT22;30451;48.638;10.624;2023-02-03T17:03:57;21.20;49.10
44723;DHT22;30451;48.638;10.624;2023-02-03T17:06:22;21.10;49.10
44723;DHT22;30451;48.638;10.624;2023-02-03T17:08:48;21.10;49.10
44723;DHT22;30451;48.638;10.624;2023-02-03T17:11:18;21.10;49.10
44723;DHT22;30451;48.638;10.624;2023-02-03T17:13:45;21.10;49.20
44723;DHT22;30451;48.638;10.624;2023-02-03T17:16:20;21.10;49.20
44723;DHT22;30451;48.638;10.624;2023-02-03T17:18:47;21.00;49.20
44723;DHT22;30451;48.638;10.624;2023-02-03T17:21:16;21.10;49.20
44723;DHT22;30451;48.638;10.624;2023-02-03T17:23:43;21.00;49.20
44723;DHT22;30451;48.638;10.624;2023-02-03T17:26:08;21.00;49.20
44723;DHT22;30451;48.638;10.624;2023-02-03T17:28:35;21.00;49.30
44723;DHT22;30451;48.638;10.624;2023-02-03T17:31:02;21.00;49.30
44723;DHT22;30451;48.638;10.624;2023-02-03T17:33:29;21.00;49.40
44723;DHT22;30451;48.638;10.624;2023-02-03T17:36:15;21.00;49.40
44723;DHT22;30451;48.638;10.624;2023-02-03T17:38:46;20.90;49.30
44723;DHT22;30451;48.638;10.624;2023-02-03T17:41:22;21.00;49.40
44723;DHT22;30451;48.638;10.624;2023-02-03T17:43:49;20.90;49.40
44723;DHT22;30451;48.638;10.624;2023-02-03T17:46:20;20.90;49.40
44723;DHT22;30451;48.638;10.624;2023-02-03T17:48:46;20.90;49.40